Hauptseite
METAR-TAF:

METAR-TAF

Flughäfen :

RAF Fairford

Fairford, England

Breite: 51-41N, Länge: 001-47W, Höhe: 87 m

Beobachtung

Neuester Wetterbericht von vor 1 Stunde und 7 Minuten, um 20:56 UTC
Wind 7 kt aus Nord/Nordost
Temperatur 4°C
Luftfeuchtigkeit 100%
Luftdruck 1003 hPa
Sichtweite 10 km oder mehr
Geschlossene Wolkendecke in der Höhe von 900 ft

METAR: EGVA 142056Z AUTO 03007KT 9999 OVC009 04/04 A2961 RMK AO2 CIG 008 RWY09 SLP034 60000 T00440035 52022 $

Zeit: 22:03 (22:03 UTC)


TAF: fehlend

Wetterbeobachtungen und Prognosen von mehr als 4000 Flughäfen (METAR und TAF Bericht).

Die verfügbaren Stationen werden durch gelbe und rote Markierungen auf der Karte dargestellt.

Führen Sie die Maus auf sie, um den Namen der Station zu sehen.

Darauf klicken, um die Beobachtung von Wetterbeobachtungen und Prognosen zu sehen.

Um die Karte zu ändern : klicken Sie auf den grünen Tasten mit einem schwarzen Kreuz Zum Vergrößern, auf den grünen Button mit einem Gedankenstrich zu verkleinern, oder auf die grünen Pfeile für benachbarte Karten.


METAR-TAF: